Latest Weather Observations for Wynyard

IDT60801

Issued at 2:02 pm EST Saturday 28 May 2016 (issued every 30 minutes, with the page automatically refreshed every 10 minutes)

About weather observations | Map of weather stations | Latest weather observations for TAS | Other Formats
Station Details ID: 091107 Name: WYNYARD AIRPORT Lat: -41.00 Lon: 145.73 Height: 12.0 m
Data from the previous 72 hours. | See also: Recent months at Wynyard
Date/Time
EST
Temp
°C
App
Temp
°C
Dew
Point
Rel
Hum
%
Delta-T
°C
Wind Press
QNH
hPa
Press
MSL
hPa
Rain
since 9 am
mm
Dir
 
Spd
km/h
Gust
km/h
Spd
kts
Gust
kts
28/02:00pm 13.2 7.5 5.1 58 3.8 SW 24 32 13 17 1007.4 1007.4 0.0
28/01:30pm 13.5 8.0 4.1 53 4.3 SSW 22 33 12 18 1007.4 1007.4 0.0
28/01:00pm 13.5 8.6 4.9 56 4.0 SSW 20 33 11 18 1007.6 1007.6 0.0
28/12:30pm 13.6 9.8 5.7 59 3.7 SW 15 22 8 12 1007.8 1007.8 0.0
28/12:00pm 13.0 7.7 5.2 59 3.6 SW 22 39 12 21 1008.0 1008.1 0.0
28/11:30am 12.7 9.3 5.8 63 3.2 SW 13 19 7 10 1008.4 1008.5 0.0
28/11:00am 11.2 9.1 5.7 69 2.6 WSW 6 13 3 7 1008.8 1008.9 0.0
28/10:30am 10.9 8.6 5.7 70 2.4 NNW 7 9 4 5 1008.9 1009.0 0.0
28/10:00am 10.4 7.9 5.0 69 2.4 WNW 7 9 4 5 1008.7 1008.8 0.0
28/09:30am 9.2 6.4 5.2 76 1.8 N 9 11 5 6 1008.7 1008.8 0.0
28/09:00am 8.6 5.4 5.0 78 1.6 W 11 19 6 10 1008.6 1008.7 0.0
28/08:30am 6.7 3.0 4.5 86 1.0 WNW 13 15 7 8 1008.6 1008.7 0.0
28/08:00am 5.0 0.3 3.3 89 0.7 WNW 17 19 9 10 1008.4 1008.5 0.0
28/07:30am 3.2 -0.5 2.2 93 0.4 WSW 11 13 6 7 1008.6 1008.7 0.0
28/07:00am 2.7 -0.1 1.8 94 0.4 WNW 6 11 3 6 1008.3 1008.4 0.0
28/06:30am 1.2 -2.5 0.2 93 0.4 W 9 13 5 7 1008.2 1008.3 0.0
28/06:00am 1.7 -1.5 0.8 94 0.3 NW 7 9 4 5 1008.1 1008.2 0.0
28/05:30am 1.8 -1.4 0.9 94 0.3 W 7 9 4 5 1007.9 1008.0 0.0
28/05:00am 1.2 -2.4 0.3 94 0.3 W 9 13 5 7 1007.8 1007.8 0.0
28/04:30am 1.1 -2.6 -0.1 92 0.4 W 9 11 5 6 1007.7 1007.7 0.0
28/04:00am 2.5 -1.0 1.2 91 0.5 WNW 9 11 5 6 1007.7 1007.7 0.0
28/03:30am 4.0 0.2 2.0 87 0.8 NW 11 13 6 7 1007.7 1007.7 0.0
28/03:00am 4.2 0.9 2.4 88 0.7 NW 9 13 5 7 1007.8 1007.8 0.0
28/02:30am 4.4 0.7 2.3 86 0.8 NW 11 13 6 7 1007.8 1007.8 0.0
28/02:00am 4.9 1.2 2.6 85 0.9 WNW 11 15 6 8 1007.8 1007.8 0.0
28/01:30am 5.8 1.8 2.8 81 1.2 WNW 13 15 7 8 1007.7 1007.7 0.0
28/01:00am 6.3 3.5 2.9 79 1.4 W 7 11 4 6 1007.8 1007.8 0.0
28/12:30am 7.0 4.9 3.8 80 1.4 WSW 4 9 2 5 1007.9 1008.0 0.0
28/12:00am 6.6 3.9 3.6 81 1.3 W 7 13 4 7 1007.9 1008.0 0.0
 
Date/Time
EST
Temp
°C
App
Temp
°C
Dew
Point
Rel
Hum
%
Delta-T
°C
Wind Press
QNH
hPa
Press
MSL
hPa
Rain
since 9 am
mm
Dir
 
Spd
km/h
Gust
km/h
Spd
kts
Gust
kts
27/11:30pm 6.6 3.8 3.4 80 1.3 W 7 11 4 6 1007.8 1007.8 0.0
27/11:00pm 7.4 4.7 3.8 78 1.5 WSW 7 11 4 6 1007.6 1007.6 0.0
27/10:30pm 8.0 5.1 4.4 78 1.6 SSW 9 15 5 8 1007.5 1007.5 0.0
27/10:00pm 8.2 5.3 4.6 78 1.6 S 9 13 5 7 1007.5 1007.5 0.0
27/09:30pm 8.5 4.8 4.7 77 1.7 SSW 13 19 7 10 1007.4 1007.4 0.0
27/09:00pm 8.9 4.5 4.9 76 1.8 S 17 26 9 14 1007.2 1007.2 0.0
27/08:30pm 9.0 4.7 5.2 77 1.7 S 17 22 9 12 1007.0 1007.0 0.0
27/08:00pm 9.1 5.1 5.1 76 1.8 SSW 15 20 8 11 1006.7 1006.7 0.0
27/07:30pm 9.4 5.5 5.4 76 1.8 SSW 15 22 8 12 1006.4 1006.4 0.0
27/07:00pm 8.8 6.1 5.5 80 1.5 SSW 9 13 5 7 1006.2 1006.2 0.0
27/06:30pm 7.1 4.7 5.1 87 0.9 WNW 7 11 4 6 1006.2 1006.2 0.0
27/06:00pm 6.6 3.6 4.3 85 1.0 WNW 9 11 5 6 1006.0 1006.0 0.0
27/05:30pm 8.2 5.6 4.2 76 1.7 WSW 7 9 4 5 1005.6 1005.6 0.0
27/05:00pm 10.6 8.3 5.6 71 2.3 SW 7 11 4 6 1005.2 1005.2 0.0
27/04:30pm 12.1 9.4 5.7 65 3.0 SSW 9 13 5 7 1005.0 1005.0 0.0
27/04:00pm 12.7 10.1 6.1 64 3.1 SSW 9 13 5 7 1004.8 1004.8 0.0
27/03:30pm 13.0 9.9 5.7 61 3.4 SSW 11 15 6 8 1004.7 1004.7 0.0
27/03:00pm 13.3 9.9 5.9 61 3.5 SSW 13 17 7 9 1004.3 1004.3 0.0
27/02:30pm 13.3 10.3 5.9 61 3.5 SW 11 15 6 8 1004.2 1004.2 0.0
27/02:00pm 13.4 10.4 5.8 60 3.6 S 11 17 6 9 1004.1 1004.1 0.0
27/01:30pm 13.3 9.6 6.4 63 3.3 SW 15 20 8 11 1004.0 1004.0 0.0
27/01:00pm 13.5 10.2 6.6 63 3.3 SW 13 17 7 9 1004.0 1004.0 0.0
27/12:30pm 13.0 8.5 6.1 63 3.3 SW 19 28 10 15 1004.1 1004.1 0.0
27/12:00pm 12.2 7.6 5.6 64 3.1 SSW 19 30 10 16 1004.4 1004.4 0.0
27/11:30am 11.8 7.2 5.7 66 2.8 SSW 19 28 10 15 1004.7 1004.7 0.0
27/11:00am 11.3 7.1 5.8 69 2.6 SSW 17 24 9 13 1004.7 1004.7 0.0
27/10:30am 10.6 7.2 5.8 72 2.2 SSW 13 20 7 11 1004.7 1004.7 0.0
27/10:00am 9.9 5.2 5.9 76 1.8 SW 20 26 11 14 1004.7 1004.7 0.0
27/09:30am 9.3 5.0 5.3 76 1.8 SSW 17 26 9 14 1004.5 1004.5 0.0
27/09:00am 8.9 4.2 5.1 77 1.7 SSW 19 28 10 15 1004.3 1004.3 0.0
27/08:30am 8.5 3.8 5.3 80 1.4 SW 19 28 10 15 1004.3 1004.3 0.0
27/08:00am 5.6 2.6 4.2 91 0.6 SW 9 13 5 7 1004.3 1004.3 0.0
27/07:30am 4.5 1.4 3.6 94 0.4 WSW 9 13 5 7 1004.2 1004.2 0.0
27/07:00am 4.3 0.4 3.6 95 0.3 WSW 13 17 7 9 1003.9 1003.9 0.0
27/06:30am 3.9 0.3 3.2 95 0.3 W 11 13 6 7 1003.8 1003.8 0.0
27/06:00am 3.0 -1.9 2.3 95 0.3 W 17 22 9 12 1003.7 1003.7 0.0
27/05:30am 3.0 -0.7 2.3 95 0.3 WNW 11 13 6 7 1003.6 1003.6 0.0
27/05:00am 2.6 -0.8 1.7 94 0.3 W 9 11 5 6 1003.5 1003.5 0.0
27/04:30am 3.5 -0.1 2.8 95 0.3 W 11 13 6 7 1003.5 1003.5 0.0
27/04:00am 3.2 -0.5 2.2 93 0.4 W 11 13 6 7 1003.5 1003.5 0.0
27/03:30am 4.3 1.1 3.3 93 0.4 WSW 9 13 5 7 1003.5 1003.5 0.0
27/03:00am 4.5 1.4 3.6 94 0.4 WSW 9 11 5 6 1003.5 1003.5 0.0
27/02:30am 3.7 0.0 2.4 91 0.5 WNW 11 11 6 6 1003.6 1003.6 0.0
27/02:00am 5.3 2.2 3.8 90 0.6 NW 9 11 5 6 1003.4 1003.4 0.0
27/01:30am 5.3 1.1 3.6 89 0.7 W 15 17 8 9 1003.1 1003.1 0.0
27/01:00am 6.0 2.2 3.8 86 0.9 WNW 13 17 7 9 1003.0 1003.0 0.0
27/12:30am 6.9 4.0 4.4 84 1.1 WNW 9 11 5 6 1003.1 1003.1 0.0
27/12:00am 7.4 4.5 4.4 81 1.3 W 9 13 5 7 1002.9 1002.9 0.0
 
Date/Time
EST
Temp
°C
App
Temp
°C
Dew
Point
Rel
Hum
%
Delta-T
°C
Wind Press
QNH
hPa
Press
MSL
hPa
Rain
since 9 am
mm
Dir
 
Spd
km/h
Gust
km/h
Spd
kts
Gust
kts
26/11:30pm 7.4 3.7 4.4 81 1.3 WSW 13 15 7 8 1003.1 1003.1 0.0
26/11:00pm 8.4 4.4 5.0 79 1.5 WSW 15 20 8 11 1003.0 1003.0 0.0
26/10:30pm 7.6 4.0 4.9 83 1.2 SW 13 17 7 9 1002.9 1002.9 0.0
26/10:00pm 6.6 3.3 4.3 85 1.0 W 11 15 6 8 1003.2 1003.2 0.0
26/09:30pm 7.2 4.3 4.7 84 1.1 WSW 9 13 5 7 1003.1 1003.1 0.0
26/09:00pm 7.5 4.2 4.8 83 1.2 WSW 11 15 6 8 1002.8 1002.8 0.0
26/08:30pm 9.0 4.3 5.2 77 1.7 SW 19 26 10 14 1002.5 1002.5 0.0
26/08:00pm 8.9 4.2 5.3 78 1.6 SW 19 28 10 15 1002.3 1002.3 0.0
26/07:30pm 8.5 4.5 4.9 78 1.6 WSW 15 19 8 10 1002.4 1002.4 0.0
26/07:00pm 9.0 4.7 5.2 77 1.7 WSW 17 22 9 12 1002.2 1002.2 0.0
26/06:30pm 9.3 4.4 4.9 74 2.0 SW 20 30 11 16 1001.9 1001.9 0.0
26/06:00pm 9.5 5.3 5.5 76 1.8 SW 17 24 9 13 1001.6 1001.6 0.0
26/05:30pm 9.1 6.0 5.7 79 1.5 SW 11 15 6 8 1001.4 1001.4 0.0
26/05:00pm 9.9 6.1 5.7 75 1.9 SW 15 17 8 9 1001.1 1001.1 0.0
26/04:30pm 11.0 6.9 6.0 71 2.3 SW 17 24 9 13 1000.8 1000.8 0.0
26/04:00pm 11.5 7.8 6.4 71 2.4 SW 15 20 8 11 1000.5 1000.5 0.0
26/03:30pm 12.3 8.2 6.4 67 2.8 SW 17 24 9 13 1000.2 1000.2 0.0
26/03:00pm 12.6 8.1 6.0 64 3.1 SSW 19 28 10 15 1000.2 1000.2 0.0
26/02:30pm 12.9 8.5 6.5 65 3.1 SSW 19 28 10 15 999.8 999.8 0.0
26/02:00pm 12.6 8.6 6.6 67 2.9 SSW 17 24 9 13 999.7 999.7 0.0
26/01:30pm 12.1 8.4 6.4 68 2.7 SW 15 20 8 11 999.9 999.9 0.0
26/01:00pm 11.7 7.6 6.4 70 2.5 S 17 26 9 14 999.7 999.7 0.0
26/12:30pm 11.2 7.9 6.5 73 2.2 SSW 13 20 7 11 1000.2 1000.2 0.0
26/12:00pm 11.2 8.0 6.9 75 2.1 SSW 13 19 7 10 1000.7 1000.7 0.0
26/11:30am 11.1 8.0 7.2 77 1.9 SW 13 17 7 9 1001.0 1001.0 0.0
26/11:00am 10.6 6.8 7.5 81 1.5 W 17 20 9 11 1001.3 1001.3 0.0
26/10:30am 10.3 7.3 7.5 83 1.3 WNW 13 17 7 9 1001.6 1001.6 0.0
26/10:00am 10.2 8.4 7.8 85 1.2 WNW 7 9 4 5 1001.6 1001.6 0.0
26/09:30am 10.0 8.2 7.9 87 1.0 W 7 9 4 5 1001.6 1001.6 0.0
26/09:00am 9.7 6.7 7.6 87 1.0 WNW 13 17 7 9 1001.6 1001.6 8.0
26/08:30am 9.6 6.6 7.7 88 0.9 NW 13 15 7 8 1001.8 1001.8 8.0
26/08:00am 9.4 5.6 7.7 89 0.8 WNW 17 19 9 10 1001.7 1001.7 8.0
26/07:30am 9.4 6.3 7.3 87 1.0 W 13 17 7 9 1001.5 1001.5 8.0
26/07:00am 9.7 7.2 8.0 89 0.8 NW 11 13 6 7 1001.5 1001.5 8.0
26/06:30am 9.8 7.7 8.4 91 0.7 NW 9 11 5 6 1001.3 1001.3 8.0
26/06:00am 9.8 8.1 8.4 91 0.7 WNW 7 9 4 5 1001.5 1001.5 8.0
26/05:30am 10.4 8.1 9.0 91 0.7 WNW 11 15 6 8 1001.5 1001.5 8.0
26/05:00am 9.8 8.1 8.4 91 0.7 WSW 7 9 4 5 1001.3 1001.3 8.0
26/04:30am 10.7 9.2 9.3 91 0.7 WNW 7 11 4 6 1001.7 1001.7 8.0
26/04:00am 11.4 8.6 10.1 92 0.7 W 15 20 8 11 1001.4 1001.4 8.0
26/03:30am 11.6 9.8 10.8 95 0.4 SW 11 17 6 9 1001.5 1001.5 8.0
26/03:00am 10.7 9.0 9.9 95 0.4 SW 9 9 5 5 1001.7 1001.7 8.0
26/02:30am 11.2 9.6 10.3 94 0.5 WSW 9 11 5 6 1001.8 1001.8 8.0
26/02:27am 11.1 9.5 10.2 94 0.5 W 9 11 5 6 1001.9 1001.9 8.0
26/02:00am 12.5 11.3 11.6 94 0.5 WNW 9 17 5 9 1001.9 1001.9 8.0
26/01:47am 13.0 9.9 12.1 94 0.5 NW 20 28 11 15 1002.3 1002.3 8.0
26/01:30am 12.9 9.0 12.0 94 0.5 NW 24 37 13 20 1002.4 1002.4 8.0
26/01:00am 12.8 9.6 12.0 95 0.4 NW 20 30 11 16 1002.8 1002.8 7.4
26/12:30am 12.7 9.7 11.9 95 0.4 NW 19 24 10 13 1003.1 1003.1 7.2
26/12:00am 12.8 10.2 11.9 94 0.5 NW 17 26 9 14 1003.6 1003.6 6.2
 
Date/Time
EST
Temp
°C
App
Temp
°C
Dew
Point
Rel
Hum
%
Delta-T
°C
Wind Press
QNH
hPa
Press
MSL
hPa
Rain
since 9 am
mm
Dir
 
Spd
km/h
Gust
km/h
Spd
kts
Gust
kts
25/11:51pm 12.9 9.9 12.0 94 0.5 NNW 19 22 10 12 1003.7 1003.7 5.8
25/11:47pm 12.9 10.3 12.0 94 0.5 NNW 17 22 9 12 1003.8 1003.8 5.4
25/11:30pm 12.6 10.3 11.8 95 0.4 NNW 15 22 8 12 1004.0 1004.0 5.2
25/11:12pm 12.5 10.2 11.7 95 0.4 NNW 15 19 8 10 1004.3 1004.3 4.4
25/11:05pm 12.4 9.7 11.6 95 0.4 NW 17 26 9 14 1004.5 1004.5 4.2
25/11:00pm 12.4 9.3 11.5 94 0.5 NW 19 28 10 15 1004.5 1004.5 4.0
25/10:30pm 12.4 9.6 11.5 94 0.5 NW 17 24 9 13 1004.9 1004.9 2.6
25/10:00pm 12.2 8.4 11.1 93 0.6 NW 22 33 12 18 1005.2 1005.2 2.0
25/09:30pm 12.4 9.2 11.1 92 0.7 NW 19 32 10 17 1005.5 1005.5 1.4
25/09:08pm 12.7 8.4 10.6 87 1.1 NW 24 33 13 18 1005.7 1005.7 0.4
25/09:02pm 12.9 8.1 10.4 85 1.3 NNW 26 35 14 19 1005.7 1005.7 0.0
25/09:00pm 13.0 8.2 10.4 84 1.4 NNW 26 35 14 19 1005.7 1005.7 0.0
25/08:30pm 13.3 7.9 9.5 78 1.9 NNW 28 41 15 22 1005.6 1005.6 0.0
25/08:05pm 13.3 8.4 10.1 81 1.7 NNW 26 43 14 23 1005.7 1005.7 0.0
25/08:00pm 13.3 8.0 9.9 80 1.8 NNW 28 44 15 24 1005.7 1005.7 0.0
25/07:33pm 12.3 10.5 11.0 92 0.7 NW 11 28 6 15 1005.7 1005.7 0.0
25/07:30pm 11.6 10.0 10.3 92 0.7 WNW 9 20 5 11 1005.8 1005.8 0.0
25/07:00pm 10.5 8.9 8.9 90 0.8 W 7 9 4 5 1005.9 1005.9 0.0
25/06:30pm 10.7 10.1 9.0 89 0.8 W 2 13 1 7 1005.9 1005.9 0.0
25/06:00pm 11.1 10.2 9.2 88 1.0 SSE 4 7 2 4 1006.1 1006.1 0.0
25/05:30pm 11.4 9.1 9.0 85 1.2 SE 11 13 6 7 1006.3 1006.3 0.0
25/05:00pm 11.3 9.3 8.7 84 1.3 SE 9 13 5 7 1006.6 1006.6 0.0
25/04:30pm 11.4 9.4 8.8 84 1.3 SE 9 13 5 7 1006.9 1006.9 0.0
25/04:00pm 11.5 8.7 8.5 82 1.5 SE 13 17 7 9 1007.1 1007.1 0.0
25/03:30pm 11.4 7.8 8.3 81 1.5 ESE 17 20 9 11 1007.5 1007.5 0.0
25/03:07pm 11.4 8.2 8.3 81 1.5 ESE 15 20 8 11 1007.6 1007.6 0.0
25/03:00pm 11.5 8.3 8.4 81 1.5 ESE 15 20 8 11 1007.7 1007.7 0.0
25/02:30pm 11.1 8.1 7.8 80 1.6 ESE 13 19 7 10 1007.9 1008.0 0.0

Other Formats:

Comma delimited format used in spreadsheet applications
http://www.bom.gov.au/fwo/IDT60801/IDT60801.95957.axf

JavaScript Object Notation format (JSON) in row-major order
http://www.bom.gov.au/fwo/IDT60801/IDT60801.95957.json